Time;durP1;ratioP1;P1;durP2;ratioP2;P2;SDS_P1;SDS_P2;PMS_P1;PMS_P2;Temp;Humidity;BMP_temperature;BMP_pressure;BME280_temperature;BME280_humidity;BME280_pressure;Samples;Min_cycle;Max_cycle;Signal;HPM_P1;HPM_P2
2023/08/20 00:01:27;;;;;;;7.88;2.63;;;19.20;70.20;;;;;;5006051;28;20436;-69
2023/08/20 00:03:53;;;;;;;9.05;3.75;;;19.20;70.30;;;;;;5003932;28;20033;-67
2023/08/20 00:06:21;;;;;;;8.13;3.75;;;19.10;70.10;;;;;;5013871;28;20034;-68
2023/08/20 00:08:48;;;;;;;9.60;2.97;;;19.10;70.20;;;;;;5013701;28;20389;-67
2023/08/20 00:11:14;;;;;;;5.90;2.05;;;19.10;70.30;;;;;;5005706;28;20396;-68
2023/08/20 00:13:41;;;;;;;10.88;3.58;;;19.10;70.30;;;;;;5017511;28;20112;-68
2023/08/20 00:16:08;;;;;;;4.85;2.28;;;19.00;70.20;;;;;;5015430;28;20088;-67
2023/08/20 00:18:35;;;;;;;6.20;2.60;;;19.00;70.30;;;;;;5016348;28;20033;-70
2023/08/20 00:21:01;;;;;;;7.05;2.83;;;19.00;70.40;;;;;;5010194;28;20080;-68
2023/08/20 00:23:27;;;;;;;8.55;2.63;;;18.90;70.30;;;;;;5003771;28;20092;-68
2023/08/20 00:25:53;;;;;;;5.90;2.70;;;18.90;70.30;;;;;;5010496;28;20038;-68
2023/08/20 00:28:20;;;;;;;10.15;2.50;;;18.90;70.40;;;;;;5006203;28;20041;-68
2023/08/20 00:30:46;;;;;;;7.00;2.53;;;18.90;70.50;;;;;;5010075;28;20058;-69
2023/08/20 00:33:13;;;;;;;6.82;2.50;;;18.90;70.50;;;;;;5003196;28;20053;-70
2023/08/20 00:35:39;;;;;;;7.22;2.17;;;18.80;70.50;;;;;;5010603;28;20600;-69
2023/08/20 00:38:05;;;;;;;6.63;2.42;;;18.80;70.50;;;;;;5011989;28;20037;-69
2023/08/20 00:40:32;;;;;;;7.68;2.55;;;18.80;70.50;;;;;;5018518;28;20052;-69
2023/08/20 00:42:58;;;;;;;7.72;2.92;;;18.80;70.60;;;;;;5011058;28;20033;-67
2023/08/20 00:45:26;;;;;;;4.95;2.15;;;18.80;70.60;;;;;;5016603;28;20382;-68
2023/08/20 00:47:52;;;;;;;5.95;2.33;;;18.70;70.50;;;;;;5013129;28;20094;-72
2023/08/20 00:50:19;;;;;;;6.63;2.50;;;18.70;70.60;;;;;;5018156;28;20098;-67
2023/08/20 00:52:45;;;;;;;9.98;3.13;;;18.70;70.60;;;;;;5008985;28;20565;-68
2023/08/20 00:55:15;;;;;;;6.60;2.65;;;18.70;70.60;;;;;;5012970;28;20029;-67
2023/08/20 00:57:42;;;;;;;5.00;2.05;;;18.60;70.50;;;;;;5009739;28;20499;-67
2023/08/20 01:00:10;;;;;;;8.30;1.98;;;18.60;70.60;;;;;;5013898;28;20074;-66
2023/08/20 01:02:37;;;;;;;5.93;2.78;;;18.60;70.60;;;;;;5016230;28;20037;-68
2023/08/20 01:05:07;;;;;;;5.88;2.45;;;18.60;70.70;;;;;;5018041;28;20164;-67
2023/08/20 01:07:54;;;;;;;4.93;1.98;;;18.60;70.80;;;;;;5017477;28;20065;-68
2023/08/20 01:10:41;;;;;;;4.63;2.72;;;18.60;70.90;;;;;;5012143;28;20369;-66
2023/08/20 01:13:07;;;;;;;9.00;2.75;;;18.50;70.70;;;;;;5019276;28;20099;-66
2023/08/20 01:15:33;;;;;;;6.32;2.85;;;18.50;70.70;;;;;;5011611;28;20128;-69
2023/08/20 01:17:59;;;;;;;5.88;2.40;;;18.50;70.80;;;;;;5013674;28;20123;-67
2023/08/20 01:20:32;;;;;;;5.03;2.03;;;18.50;70.80;;;;;;5013040;28;20045;-68
2023/08/20 01:23:20;;;;;;;4.90;2.20;;;18.50;70.90;;;;;;5012105;28;20034;-66
2023/08/20 01:26:05;;;;;;;5.85;2.78;;;18.50;70.90;;;;;;5015287;28;20045;-68
2023/08/20 01:28:31;;;;;;;5.32;2.33;;;18.40;70.70;;;;;;5012314;28;20570;-67
2023/08/20 01:31:00;;;;;;;6.03;2.88;;;18.40;70.80;;;;;;5020213;28;20496;-66
2023/08/20 01:33:27;;;;;;;7.30;2.88;;;18.40;70.90;;;;;;5013030;28;20084;-67
2023/08/20 01:35:54;;;;;;;5.70;1.98;;;18.40;70.90;;;;;;5018943;28;20113;-68
2023/08/20 01:38:21;;;;;;;5.20;1.90;;;18.40;71.00;;;;;;5017312;28;20044;-68
2023/08/20 01:40:48;;;;;;;5.43;2.10;;;18.30;70.90;;;;;;5015843;28;20325;-70
2023/08/20 01:43:15;;;;;;;7.25;2.13;;;18.40;71.00;;;;;;5011574;28;20403;-70
2023/08/20 01:45:41;;;;;;;5.70;1.88;;;18.30;70.90;;;;;;5022199;28;20095;-72
2023/08/20 01:48:07;;;;;;;9.48;2.88;;;18.30;71.00;;;;;;5023927;28;20029;-73
2023/08/20 01:50:34;;;;;;;9.27;2.10;;;18.30;71.00;;;;;;5021801;28;20495;-70
2023/08/20 01:53:02;;;;;;;6.22;2.65;;;18.30;71.00;;;;;;5021157;28;20032;-69
2023/08/20 01:55:29;;;;;;;7.70;2.65;;;18.30;71.10;;;;;;5022216;28;20034;-73
2023/08/20 01:57:55;;;;;;;4.63;2.00;;;18.30;71.10;;;;;;5022351;28;20022;-73
2023/08/20 02:00:21;;;;;;;8.55;1.95;;;18.30;71.20;;;;;;5018605;28;20391;-72
2023/08/20 02:02:47;;;;;;;5.95;2.33;;;18.20;71.00;;;;;;5015819;28;20038;-72
2023/08/20 02:05:13;;;;;;;4.50;2.20;;;18.20;71.10;;;;;;5022634;28;20105;-70
2023/08/20 02:07:39;;;;;;;3.28;1.52;;;18.20;71.10;;;;;;5019929;28;20071;-69
2023/08/20 02:10:05;;;;;;;6.78;3.05;;;18.10;71.00;;;;;;5019623;28;20033;-71
2023/08/20 02:12:31;;;;;;;5.00;2.17;;;18.10;71.00;;;;;;5018727;28;20061;-70
2023/08/20 02:14:57;;;;;;;5.57;1.92;;;18.10;71.10;;;;;;5017145;28;20064;-70
2023/08/20 02:17:24;;;;;;;5.18;1.80;;;18.10;71.10;;;;;;5015338;28;20107;-70
2023/08/20 02:19:50;;;;;;;8.93;2.30;;;18.10;71.20;;;;;;5019746;28;20541;-68
2023/08/20 02:22:17;;;;;;;5.10;2.70;;;18.00;71.60;;;;;;5022304;28;20053;-67
2023/08/20 02:24:43;;;;;;;5.38;2.22;;;18.00;71.10;;;;;;5013338;28;20495;-73
2023/08/20 02:27:09;;;;;;;7.60;2.30;;;18.00;71.10;;;;;;5020090;28;20099;-69
2023/08/20 02:29:35;;;;;;;6.72;2.55;;;18.00;71.20;;;;;;5020145;28;20025;-72
2023/08/20 02:32:01;;;;;;;7.75;2.33;;;17.90;71.00;;;;;;5020454;28;20382;-72
2023/08/20 02:34:29;;;;;;;6.35;2.55;;;18.00;71.20;;;;;;5019349;28;20445;-69
2023/08/20 02:36:55;;;;;;;7.57;2.55;;;17.90;71.10;;;;;;5020747;28;20041;-69
2023/08/20 02:39:24;;;;;;;4.82;2.00;;;17.80;70.90;;;;;;5013365;28;20029;-70
2023/08/20 02:41:50;;;;;;;4.25;2.00;;;17.80;70.90;;;;;;5021455;28;20052;-70
2023/08/20 02:44:15;;;;;;;5.53;2.95;;;17.80;71.00;;;;;;5015811;28;20049;-67
2023/08/20 02:46:44;;;;;;;6.85;1.90;;;17.80;71.00;;;;;;5017352;28;20041;-71
2023/08/20 02:49:10;;;;;;;5.13;2.00;;;17.70;70.90;;;;;;5021475;28;20029;-69
2023/08/20 02:51:36;;;;;;;4.40;1.90;;;17.70;71.00;;;;;;5030193;28;20056;-72
2023/08/20 02:54:02;;;;;;;5.53;2.20;;;17.70;71.00;;;;;;5032898;28;20026;-72
2023/08/20 02:56:29;;;;;;;4.38;2.10;;;17.60;70.90;;;;;;5027804;28;20030;-75
2023/08/20 02:58:55;;;;;;;8.00;2.90;;;17.60;70.90;;;;;;5030626;28;20108;-70
2023/08/20 03:01:22;;;;;;;4.28;1.65;;;17.60;71.00;;;;;;5016344;28;20037;-68
2023/08/20 03:03:48;;;;;;;7.38;2.03;;;17.50;70.80;;;;;;5018539;28;20029;-73
2023/08/20 03:06:20;;;;;;;5.80;2.45;;;17.60;71.10;;;;;;5014371;28;20033;-71
2023/08/20 03:08:47;;;;;;;5.30;1.95;;;17.50;70.90;;;;;;5017130;28;20490;-69
2023/08/20 03:11:13;;;;;;;4.05;1.90;;;17.50;71.00;;;;;;5016423;28;20032;-72
2023/08/20 03:13:39;;;;;;;5.70;2.40;;;17.50;71.00;;;;;;5016242;28;20532;-71
2023/08/20 03:16:05;;;;;;;7.05;2.17;;;17.40;70.80;;;;;;5015097;28;20014;-73
2023/08/20 03:18:31;;;;;;;4.88;1.90;;;17.40;70.90;;;;;;5008989;28;20305;-74
2023/08/20 03:20:57;;;;;;;3.53;1.77;;;17.40;70.90;;;;;;5015476;28;20520;-74
2023/08/20 03:23:24;;;;;;;5.00;1.80;;;17.40;71.00;;;;;;5007965;28;20039;-69
2023/08/20 03:25:50;;;;;;;4.07;1.80;;;17.40;71.00;;;;;;5014948;28;20104;-70
2023/08/20 03:28:18;;;;;;;4.93;2.10;;;17.30;70.80;;;;;;5017959;28;20028;-71
2023/08/20 03:30:44;;;;;;;7.25;2.10;;;17.30;70.90;;;;;;5014227;28;20040;-71
2023/08/20 03:33:13;;;;;;;4.85;2.13;;;17.30;70.90;;;;;;5017461;28;20500;-72
2023/08/20 03:35:40;;;;;;;4.85;1.90;;;17.30;70.90;;;;;;5013275;28;20437;-70
2023/08/20 03:38:06;;;;;;;5.20;2.38;;;17.20;70.80;;;;;;5012599;28;20378;-69
2023/08/20 03:40:32;;;;;;;4.45;2.15;;;17.20;70.80;;;;;;5013466;28;20557;-69
2023/08/20 03:42:58;;;;;;;5.15;2.03;;;17.20;70.90;;;;;;5018983;28;20033;-70
2023/08/20 03:45:25;;;;;;;8.07;2.58;;;17.20;70.90;;;;;;5019787;28;20036;-71
2023/08/20 03:47:52;;;;;;;2.67;1.58;;;17.20;71.00;;;;;;5004380;28;20045;-69
2023/08/20 03:50:18;;;;;;;4.90;1.70;;;17.10;70.80;;;;;;5015364;28;20132;-69
2023/08/20 03:52:44;;;;;;;7.72;2.13;;;17.10;70.80;;;;;;5017105;28;20036;-70
2023/08/20 03:55:11;;;;;;;6.63;1.95;;;17.00;71.00;;;;;;5012938;28;20056;-72
2023/08/20 03:57:36;;;;;;;4.68;1.80;;;17.00;70.70;;;;;;5014012;28;20072;-71
2023/08/20 04:00:08;;;;;;;7.47;3.30;;;17.00;70.80;;;;;;5014811;28;20021;-70
2023/08/20 04:02:41;;;;;;;4.10;1.70;;;16.90;70.60;;;;;;5016806;28;20041;-70
2023/08/20 04:05:08;;;;;;;4.75;2.25;;;16.90;70.70;;;;;;5009223;28;20076;-68
2023/08/20 04:07:34;;;;;;;4.88;1.65;;;16.90;71.20;;;;;;5015997;28;20203;-69
2023/08/20 04:10:01;;;;;;;7.10;1.95;;;16.90;70.70;;;;;;4993443;28;20029;-72
2023/08/20 04:12:27;;;;;;;5.30;2.50;;;16.90;70.80;;;;;;5017086;28;20486;-69
2023/08/20 04:14:56;;;;;;;6.85;2.53;;;16.90;70.80;;;;;;5019165;28;20046;-71
2023/08/20 04:17:22;;;;;;;4.07;2.15;;;16.80;70.70;;;;;;5016505;28;20481;-70
2023/08/20 04:19:48;;;;;;;3.65;1.90;;;16.80;70.70;;;;;;5018901;28;20470;-72
2023/08/20 04:22:14;;;;;;;4.70;1.75;;;16.80;70.80;;;;;;5013144;28;20117;-70
2023/08/20 04:24:41;;;;;;;3.95;1.55;;;16.70;70.60;;;;;;5016978;28;20017;-75
2023/08/20 04:27:07;;;;;;;3.75;2.00;;;16.70;70.60;;;;;;5013449;28;20029;-68
2023/08/20 04:29:34;;;;;;;7.32;1.98;;;16.70;70.60;;;;;;5016763;28;20041;-68
2023/08/20 04:32:00;;;;;;;4.78;2.08;;;16.70;70.60;;;;;;5016467;28;20155;-67
2023/08/20 04:34:26;;;;;;;3.70;2.13;;;16.70;70.70;;;;;;5017863;28;20029;-70
2023/08/20 04:36:53;;;;;;;3.03;1.60;;;16.60;70.50;;;;;;5023556;28;20076;-69
2023/08/20 04:39:20;;;;;;;3.10;1.85;;;16.60;70.60;;;;;;5016849;28;20092;-72
2023/08/20 04:41:50;;;;;;;4.90;1.50;;;16.60;70.60;;;;;;5023724;28;20037;-73
2023/08/20 04:44:19;;;;;;;4.90;1.85;;;16.60;70.60;;;;;;5020616;28;20105;-74
2023/08/20 04:46:46;;;;;;;3.90;2.33;;;16.60;70.60;;;;;;5021789;28;20095;-76
2023/08/20 04:49:13;;;;;;;7.03;1.80;;;16.60;70.60;;;;;;5016886;28;20033;-70
2023/08/20 04:51:39;;;;;;;4.75;2.30;;;16.50;70.50;;;;;;5026615;28;20454;-69
2023/08/20 04:54:05;;;;;;;4.65;1.80;;;16.50;70.50;;;;;;5011929;28;20513;-67
2023/08/20 04:56:31;;;;;;;4.30;2.13;;;16.50;70.50;;;;;;5020397;28;20049;-68
2023/08/20 04:58:57;;;;;;;3.53;1.65;;;16.50;70.50;;;;;;5016484;28;20033;-68
2023/08/20 05:01:41;;;;;;;4.18;1.88;;;16.40;70.40;;;;;;5020000;28;20450;-69
2023/08/20 05:04:09;;;;;;;3.55;1.60;;;16.40;70.40;;;;;;5019302;28;20353;-72
2023/08/20 05:06:35;;;;;;;3.45;1.40;;;16.40;70.40;;;;;;5015463;28;20044;-71
2023/08/20 05:09:01;;;;;;;2.38;1.50;;;16.40;70.40;;;;;;4998159;28;20080;-71
2023/08/20 05:11:28;;;;;;;4.00;1.23;;;16.30;70.30;;;;;;5000736;28;20133;-70
2023/08/20 05:13:55;;;;;;;3.42;1.67;;;16.30;70.30;;;;;;5015181;28;20033;-72
2023/08/20 05:16:23;;;;;;;5.78;2.72;;;16.30;70.30;;;;;;5016504;28;20069;-69
2023/08/20 05:18:50;;;;;;;5.97;1.92;;;16.30;70.90;;;;;;5019866;28;20079;-69
2023/08/20 05:21:17;;;;;;;3.88;1.88;;;16.30;70.30;;;;;;5010996;28;20052;-69
2023/08/20 05:23:43;;;;;;;3.50;1.40;;;16.20;70.20;;;;;;5016395;28;20030;-69
2023/08/20 05:26:10;;;;;;;4.85;1.90;;;16.30;70.40;;;;;;5016193;28;20061;-73
2023/08/20 05:28:36;;;;;;;2.17;1.70;;;16.30;70.40;;;;;;5018400;28;20544;-69
2023/08/20 05:31:03;;;;;;;4.88;1.50;;;16.30;70.50;;;;;;5008306;28;20033;-69
2023/08/20 05:33:30;;;;;;;4.97;1.65;;;16.30;70.70;;;;;;5008928;28;20037;-69
2023/08/20 05:35:56;;;;;;;3.95;1.50;;;16.30;70.80;;;;;;5009578;28;20518;-72
2023/08/20 05:38:22;;;;;;;4.07;1.63;;;16.30;70.90;;;;;;5027517;28;20055;-69
2023/08/20 05:40:50;;;;;;;6.65;2.50;;;16.30;70.80;;;;;;5011441;28;20099;-69
2023/08/20 05:43:17;;;;;;;3.40;1.75;;;16.30;70.80;;;;;;5012261;28;20051;-69
2023/08/20 05:45:43;;;;;;;3.78;1.75;;;16.40;71.00;;;;;;5014633;28;20060;-69
2023/08/20 05:48:13;;;;;;;8.02;1.90;;;16.40;70.90;;;;;;4998853;28;20035;-69
2023/08/20 05:50:39;;;;;;;3.88;1.75;;;16.40;70.90;;;;;;5017334;28;20042;-69
2023/08/20 05:53:05;;;;;;;5.60;2.17;;;16.50;71.00;;;;;;5008933;28;20034;-69
2023/08/20 05:55:32;;;;;;;4.82;1.85;;;16.50;71.00;;;;;;5011561;28;20099;-68
2023/08/20 05:57:59;;;;;;;5.32;2.40;;;16.50;70.90;;;;;;5010759;28;20623;-70
2023/08/20 06:00:26;;;;;;;5.63;2.10;;;16.60;71.00;;;;;;5012220;28;20034;-70
2023/08/20 06:02:53;;;;;;;3.55;1.65;;;16.60;70.90;;;;;;5010215;28;20088;-70
2023/08/20 06:05:18;;;;;;;4.07;1.73;;;16.60;70.90;;;;;;5011384;28;20041;-69
2023/08/20 06:07:45;;;;;;;3.25;1.90;;;16.70;71.10;;;;;;5009610;28;20037;-70
2023/08/20 06:10:11;;;;;;;4.30;1.70;;;16.70;71.10;;;;;;5011970;28;20452;-70
2023/08/20 06:12:38;;;;;;;6.50;2.20;;;16.70;71.10;;;;;;5011236;28;20029;-69
2023/08/20 06:15:05;;;;;;;5.50;1.70;;;16.70;71.00;;;;;;5014708;28;20381;-68
2023/08/20 06:17:31;;;;;;;5.75;2.03;;;16.80;71.20;;;;;;5014641;28;20041;-70
2023/08/20 06:19:58;;;;;;;5.20;1.85;;;16.80;71.20;;;;;;5013209;28;20029;-69
2023/08/20 06:22:25;;;;;;;3.03;1.65;;;16.90;71.30;;;;;;5014322;28;20041;-70
2023/08/20 06:24:52;;;;;;;3.90;2.08;;;16.90;71.20;;;;;;5009995;28;20022;-70
2023/08/20 06:27:19;;;;;;;5.20;1.60;;;16.90;71.20;;;;;;5012257;28;20030;-69
2023/08/20 06:29:46;;;;;;;7.68;2.47;;;17.00;71.40;;;;;;5012105;28;20486;-69
2023/08/20 06:32:12;;;;;;;3.03;1.83;;;17.00;71.30;;;;;;5012967;28;20083;-69
2023/08/20 06:34:39;;;;;;;6.25;2.00;;;17.10;71.40;;;;;;5014549;28;20036;-70
2023/08/20 06:37:06;;;;;;;4.72;2.00;;;17.20;71.50;;;;;;5008832;28;20041;-70
2023/08/20 06:39:34;;;;;;;4.50;1.60;;;17.20;71.50;;;;;;5012802;28;20309;-69
2023/08/20 06:42:00;;;;;;;6.45;1.88;;;17.20;71.50;;;;;;5006626;28;20073;-69
2023/08/20 06:44:26;;;;;;;3.17;2.15;;;17.30;71.60;;;;;;5008312;28;20482;-70
2023/08/20 06:46:53;;;;;;;7.80;2.35;;;17.40;72.20;;;;;;5008811;28;20040;-70
2023/08/20 06:49:19;;;;;;;3.92;1.90;;;17.40;71.70;;;;;;5011006;28;20065;-70
2023/08/20 06:51:46;;;;;;;5.60;2.30;;;17.60;71.90;;;;;;5016933;28;20511;-70
2023/08/20 06:54:15;;;;;;;4.07;2.63;;;17.70;71.90;;;;;;5004932;28;20061;-69
2023/08/20 06:56:41;;;;;;;3.75;1.60;;;17.70;71.90;;;;;;5012891;28;20088;-70
2023/08/20 06:59:08;;;;;;;5.75;1.95;;;17.90;72.30;;;;;;5012990;28;20062;-70
2023/08/20 07:01:34;;;;;;;8.20;3.25;;;18.20;72.50;;;;;;5011786;28;20084;-71
2023/08/20 07:04:01;;;;;;;3.92;2.45;;;18.60;72.40;;;;;;5002988;28;20026;-71
2023/08/20 07:06:28;;;;;;;6.18;2.22;;;19.00;72.20;;;;;;5006829;28;20560;-69
2023/08/20 07:08:54;;;;;;;5.60;2.00;;;19.50;72.00;;;;;;5009875;28;20033;-70
2023/08/20 07:11:20;;;;;;;6.55;3.05;;;20.00;71.60;;;;;;5004427;28;20029;-69
2023/08/20 07:13:47;;;;;;;5.28;2.60;;;20.40;71.10;;;;;;5009585;28;20549;-70
2023/08/20 07:16:14;;;;;;;6.93;2.60;;;20.90;70.60;;;;;;5010793;28;20030;-70
2023/08/20 07:18:40;;;;;;;6.47;2.80;;;21.40;70.10;;;;;;5004459;28;20571;-71
2023/08/20 07:21:07;;;;;;;9.50;2.00;;;21.60;69.60;;;;;;5005278;28;20524;-72
2023/08/20 07:23:34;;;;;;;6.60;2.30;;;21.90;69.30;;;;;;5006100;28;20042;-69
2023/08/20 07:26:12;;;;;;;6.30;1.70;;;21.90;69.00;;;;;;5009809;28;20025;-70
2023/08/20 07:28:57;;;;;;;7.13;1.83;;;22.00;69.10;;;;;;5014436;28;20041;-71
2023/08/20 07:31:33;;;;;;;6.47;2.25;;;22.20;69.10;;;;;;5005461;28;20038;-69
2023/08/20 07:34:04;;;;;;;5.40;2.10;;;22.40;68.60;;;;;;5012767;28;20179;-69
2023/08/20 07:36:31;;;;;;;6.93;2.35;;;22.40;68.60;;;;;;5003684;28;20037;-70
2023/08/20 07:39:00;;;;;;;4.63;1.80;;;22.50;68.70;;;;;;5009749;28;20060;-70
2023/08/20 07:41:26;;;;;;;6.43;1.60;;;22.50;68.40;;;;;;5013489;28;20041;-70
2023/08/20 07:43:53;;;;;;;5.72;1.85;;;22.60;68.50;;;;;;5009967;28;20103;-71
2023/08/20 07:46:20;;;;;;;5.80;1.80;;;22.70;68.30;;;;;;5003878;28;20481;-69
2023/08/20 07:48:47;;;;;;;5.50;2.78;;;22.90;68.30;;;;;;5013835;28;20077;-70
2023/08/20 07:51:16;;;;;;;5.05;1.88;;;23.00;68.20;;;;;;5007810;28;20136;-71
2023/08/20 07:53:43;;;;;;;7.22;2.35;;;23.20;68.10;;;;;;5011928;28;20048;-70
2023/08/20 07:56:10;;;;;;;7.25;2.38;;;23.40;68.00;;;;;;5015320;28;20040;-72
2023/08/20 07:58:39;;;;;;;6.65;2.53;;;23.50;67.70;;;;;;5012531;28;20038;-70
2023/08/20 08:01:05;;;;;;;4.78;2.05;;;23.70;67.60;;;;;;5013795;28;20204;-70
2023/08/20 08:03:32;;;;;;;3.47;1.70;;;23.80;67.40;;;;;;5006541;28;20041;-70
2023/08/20 08:05:58;;;;;;;5.45;2.13;;;23.90;67.30;;;;;;5011717;28;20033;-69
2023/08/20 08:08:25;;;;;;;4.45;1.98;;;24.00;67.30;;;;;;5005171;28;20056;-69
2023/08/20 08:10:52;;;;;;;3.03;1.70;;;24.00;67.20;;;;;;5006166;28;20040;-70
2023/08/20 08:13:21;;;;;;;4.45;2.00;;;24.00;67.20;;;;;;5006827;28;20705;-69
2023/08/20 08:15:49;;;;;;;5.50;2.35;;;24.00;67.20;;;;;;5009882;28;20393;-70
2023/08/20 08:18:19;;;;;;;5.43;1.65;;;24.10;67.20;;;;;;5012524;28;20037;-70
2023/08/20 08:20:46;;;;;;;3.28;1.48;;;24.20;67.10;;;;;;5005880;28;20036;-73
2023/08/20 08:23:13;;;;;;;3.38;1.33;;;24.30;67.10;;;;;;5004977;28;20252;-72
2023/08/20 08:25:40;;;;;;;3.03;1.27;;;24.40;67.00;;;;;;5008026;28;20037;-71
2023/08/20 08:28:06;;;;;;;5.45;1.48;;;24.50;66.90;;;;;;5007096;28;20033;-70
2023/08/20 08:30:33;;;;;;;5.30;1.88;;;24.60;66.80;;;;;;5014841;28;20041;-76
2023/08/20 08:33:00;;;;;;;4.70;1.80;;;24.70;67.30;;;;;;5011296;28;20480;-73
2023/08/20 08:35:32;;;;;;;2.92;1.60;;;24.80;66.80;;;;;;5003221;28;20534;-69
2023/08/20 08:37:59;;;;;;;3.60;2.08;;;24.90;66.90;;;;;;5001750;28;20041;-70
2023/08/20 08:40:30;;;;;;;9.63;2.40;;;24.90;66.90;;;;;;5001041;28;20045;-69
2023/08/20 08:42:56;;;;;;;7.20;2.20;;;25.00;67.10;;;;;;5004102;28;20046;-69
2023/08/20 08:45:23;;;;;;;4.20;1.58;;;25.10;67.10;;;;;;5004378;28;20108;-69
2023/08/20 08:47:53;;;;;;;3.65;1.55;;;25.20;67.00;;;;;;5006447;28;20048;-72
2023/08/20 08:50:19;;;;;;;133.82;121.93;;;25.30;66.80;;;;;;5003803;28;20041;-68
2023/08/20 08:52:50;;;;;;;283.60;259.30;;;25.40;66.80;;;;;;5011151;28;20199;-69
2023/08/20 08:55:17;;;;;;;244.82;222.75;;;25.60;66.90;;;;;;5005150;28;20038;-69
2023/08/20 08:57:44;;;;;;;227.80;207.70;;;25.70;66.90;;;;;;5015009;28;20500;-68
2023/08/20 09:00:11;;;;;;;219.27;196.27;;;25.80;66.80;;;;;;5010859;28;20049;-70
2023/08/20 09:02:38;;;;;;;362.73;329.67;;;26.00;66.90;;;;;;5002720;28;20046;-68
2023/08/20 09:05:06;;;;;;;362.45;329.73;;;26.10;67.00;;;;;;5005754;28;20387;-69
2023/08/20 09:07:33;;;;;;;348.60;317.45;;;26.20;67.00;;;;;;4998371;28;20033;-70
2023/08/20 09:10:00;;;;;;;254.75;232.20;;;26.40;66.80;;;;;;4998623;28;20215;-70
2023/08/20 09:12:27;;;;;;;202.98;184.50;;;26.50;66.40;;;;;;5005486;28;20099;-69
2023/08/20 09:14:57;;;;;;;164.40;149.20;;;26.50;66.00;;;;;;5000085;28;20044;-69
2023/08/20 09:17:27;;;;;;;110.47;100.55;;;26.60;65.60;;;;;;5004050;28;20032;-71
2023/08/20 09:19:56;;;;;;;91.82;83.32;;;26.60;65.20;;;;;;5016245;28;20422;-70
2023/08/20 09:22:23;;;;;;;69.15;62.80;;;26.60;65.00;;;;;;5012886;28;20847;-68
2023/08/20 09:24:56;;;;;;;55.60;50.13;;;26.50;64.70;;;;;;5011507;28;20518;-68
2023/08/20 09:27:24;;;;;;;46.92;41.65;;;26.50;64.30;;;;;;5003090;28;20056;-68
2023/08/20 09:29:52;;;;;;;38.30;34.22;;;26.60;64.30;;;;;;5009093;28;20061;-68
2023/08/20 09:32:23;;;;;;;42.83;38.75;;;26.60;64.00;;;;;;5008955;28;20044;-69
2023/08/20 09:34:53;;;;;;;39.65;35.55;;;26.60;63.90;;;;;;5017273;28;20044;-69
2023/08/20 09:37:24;;;;;;;37.60;33.85;;;26.60;63.70;;;;;;5013421;28;20068;-67
2023/08/20 09:39:51;;;;;;;42.67;38.15;;;26.60;63.60;;;;;;5016551;28;20505;-69
2023/08/20 09:42:18;;;;;;;37.70;33.53;;;26.60;63.50;;;;;;5011961;28;20037;-68
2023/08/20 09:44:46;;;;;;;32.72;29.42;;;26.60;63.40;;;;;;5001175;28;20330;-69
2023/08/20 09:47:15;;;;;;;27.73;24.77;;;26.50;63.30;;;;;;5012683;28;20094;-69
2023/08/20 09:49:51;;;;;;;23.77;21.25;;;26.40;63.30;;;;;;5006972;28;20042;-68
2023/08/20 09:52:29;;;;;;;16.80;14.88;;;26.30;63.40;;;;;;5012237;28;20033;-69
2023/08/20 09:55:04;;;;;;;18.00;15.85;;;26.20;63.40;;;;;;5008029;28;20030;-69
2023/08/20 09:57:40;;;;;;;15.23;12.63;;;26.10;63.40;;;;;;5011838;28;20584;-69
2023/08/20 10:00:12;;;;;;;15.07;11.55;;;26.10;63.50;;;;;;5019687;28;20021;-69
2023/08/20 10:02:42;;;;;;;13.80;12.35;;;26.10;63.50;;;;;;5012569;28;20037;-69
2023/08/20 10:05:10;;;;;;;12.82;11.50;;;26.00;63.90;;;;;;5014554;28;20029;-70
2023/08/20 10:07:37;;;;;;;12.15;9.75;;;26.10;63.50;;;;;;5015099;28;20042;-70
2023/08/20 10:10:06;;;;;;;12.00;9.20;;;26.10;63.40;;;;;;5006680;28;20435;-69
2023/08/20 10:12:34;;;;;;;12.05;9.30;;;26.10;63.30;;;;;;5017634;28;20042;-68
2023/08/20 10:15:02;;;;;;;11.05;6.90;;;26.00;63.20;;;;;;5014883;28;20033;-69
2023/08/20 10:17:30;;;;;;;8.07;6.40;;;26.00;63.00;;;;;;5003877;28;20041;-70
2023/08/20 10:19:58;;;;;;;9.60;7.50;;;26.10;63.10;;;;;;5013743;28;20043;-69
2023/08/20 10:22:53;;;;;;;10.13;6.55;;;26.10;63.00;;;;;;5008404;28;20328;-70
2023/08/20 10:25:24;;;;;;;7.80;5.15;;;26.20;62.80;;;;;;4991861;28;20381;-69
2023/08/20 10:27:52;;;;;;;9.52;5.32;;;26.30;62.90;;;;;;5009591;28;20115;-69
2023/08/20 10:30:25;;;;;;;8.82;4.82;;;26.40;62.70;;;;;;5011172;28;20029;-70
2023/08/20 10:32:51;;;;;;;5.93;4.95;;;26.50;62.50;;;;;;5012353;28;20073;-69
2023/08/20 10:35:29;;;;;;;10.15;7.95;;;26.60;62.30;;;;;;5018966;28;20426;-68
2023/08/20 10:38:05;;;;;;;9.80;7.63;;;26.60;62.20;;;;;;5018818;28;20068;-69
2023/08/20 10:40:47;;;;;;;13.82;11.40;;;26.70;62.50;;;;;;5009696;28;20168;-69
2023/08/20 10:43:45;;;;;;;11.18;9.82;;;26.70;62.20;;;;;;5013936;28;20048;-71
2023/08/20 10:46:23;;;;;;;11.45;9.95;;;26.80;62.30;;;;;;5004918;28;20042;-70
2023/08/20 10:48:55;;;;;;;13.07;10.20;;;26.90;62.40;;;;;;5029522;28;20122;-70
2023/08/20 10:51:35;;;;;;;15.27;13.45;;;27.00;62.30;;;;;;5012116;28;20053;-70
2023/08/20 10:54:05;;;;;;;17.38;15.20;;;27.10;62.50;;;;;;5014815;28;20064;-69
2023/08/20 10:56:40;;;;;;;14.52;13.13;;;27.20;62.50;;;;;;5007134;28;20222;-69
2023/08/20 10:59:08;;;;;;;20.48;16.20;;;27.40;62.50;;;;;;5006126;28;20474;-68
2023/08/20 11:01:44;;;;;;;23.63;21.23;;;27.50;62.40;;;;;;5011424;28;20546;-69
2023/08/20 11:04:15;;;;;;;30.48;27.60;;;27.60;62.30;;;;;;5005991;28;20026;-69
2023/08/20 11:06:41;;;;;;;35.28;31.60;;;27.70;62.40;;;;;;5003930;28;20579;-70
2023/08/20 11:09:08;;;;;;;36.13;32.83;;;27.80;62.50;;;;;;4998916;28;20560;-69
2023/08/20 11:11:34;;;;;;;34.97;31.90;;;28.00;62.50;;;;;;5000725;28;20033;-70
2023/08/20 11:14:11;;;;;;;43.03;39.03;;;28.00;62.40;;;;;;5007389;28;20072;-70
2023/08/20 11:16:38;;;;;;;40.40;36.83;;;28.20;62.40;;;;;;5006285;28;20034;-69
2023/08/20 11:19:08;;;;;;;44.47;40.35;;;28.30;62.30;;;;;;5006769;28;20029;-70
2023/08/20 11:21:39;;;;;;;39.97;36.28;;;28.40;62.10;;;;;;5014861;28;20038;-69
2023/08/20 11:24:06;;;;;;;28.85;26.40;;;28.40;62.10;;;;;;5005125;28;20052;-68
2023/08/20 11:26:39;;;;;;;43.38;34.53;;;28.50;62.00;;;;;;5009402;28;20030;-69
2023/08/20 11:29:07;;;;;;;34.88;31.70;;;28.50;61.70;;;;;;5014305;28;20145;-70
2023/08/20 11:31:34;;;;;;;38.55;34.65;;;28.50;61.70;;;;;;5002221;28;20034;-69
2023/08/20 11:34:02;;;;;;;34.00;30.77;;;28.40;61.70;;;;;;5009980;28;20037;-71
2023/08/20 11:36:29;;;;;;;33.50;30.63;;;28.40;61.90;;;;;;5010149;28;20309;-70
2023/08/20 11:38:58;;;;;;;37.88;34.47;;;28.30;62.60;;;;;;5006859;28;20026;-71
2023/08/20 11:41:25;;;;;;;36.55;33.17;;;28.20;62.10;;;;;;5013620;28;20112;-71
2023/08/20 11:43:53;;;;;;;29.88;27.15;;;28.20;62.30;;;;;;5012324;28;20026;-70
2023/08/20 11:46:21;;;;;;;26.52;24.08;;;28.20;62.40;;;;;;5001791;28;20091;-70
2023/08/20 11:49:08;;;;;;;27.45;24.88;;;28.20;62.60;;;;;;4999841;28;20068;-70
2023/08/20 11:51:39;;;;;;;22.30;20.08;;;28.20;62.70;;;;;;5015560;28;20098;-71
2023/08/20 11:54:08;;;;;;;22.02;19.80;;;28.30;62.60;;;;;;5004077;28;20404;-71
2023/08/20 11:56:35;;;;;;;21.40;19.30;;;28.40;62.30;;;;;;5010954;28;20047;-71
2023/08/20 11:59:02;;;;;;;16.27;14.77;;;28.40;62.20;;;;;;5004849;28;20509;-71
2023/08/20 12:01:32;;;;;;;14.85;13.35;;;28.50;62.10;;;;;;5011057;28;20496;-71
2023/08/20 12:04:03;;;;;;;14.48;13.05;;;28.50;61.70;;;;;;5010388;28;20036;-73
2023/08/20 12:06:31;;;;;;;12.80;11.70;;;28.60;61.70;;;;;;5002103;28;20357;-71
2023/08/20 12:09:01;;;;;;;11.20;10.00;;;28.50;61.60;;;;;;5006548;28;20458;-71
2023/08/20 12:11:28;;;;;;;9.80;8.90;;;28.40;61.60;;;;;;5002798;28;20647;-70
2023/08/20 12:13:55;;;;;;;8.60;7.55;;;28.30;61.60;;;;;;5011930;28;20324;-71
2023/08/20 12:16:26;;;;;;;8.57;7.70;;;28.20;61.70;;;;;;5013031;28;20051;-70
2023/08/20 12:18:58;;;;;;;6.95;6.35;;;28.10;61.70;;;;;;4998817;28;20068;-70
2023/08/20 12:21:25;;;;;;;6.57;5.88;;;28.00;61.70;;;;;;5008010;28;20442;-70
2023/08/20 12:24:00;;;;;;;6.40;5.80;;;27.90;61.80;;;;;;5009054;28;20095;-71
2023/08/20 12:26:26;;;;;;;6.88;5.45;;;27.90;62.00;;;;;;5010083;28;20030;-70
2023/08/20 12:28:53;;;;;;;7.30;5.80;;;27.80;62.00;;;;;;5018216;28;20037;-71
2023/08/20 12:31:19;;;;;;;7.53;4.97;;;27.80;62.10;;;;;;5006310;28;20033;-71
2023/08/20 12:33:45;;;;;;;5.35;4.28;;;27.80;62.10;;;;;;4996558;28;20065;-71
2023/08/20 12:36:11;;;;;;;6.00;2.75;;;27.90;62.10;;;;;;5012344;28;20083;-75
2023/08/20 12:38:37;;;;;;;1.88;1.00;;;27.90;62.00;;;;;;5006293;28;20034;-72
2023/08/20 12:41:05;;;;;;;2.42;0.93;;;28.00;61.70;;;;;;5013162;28;20046;-70
2023/08/20 12:43:31;;;;;;;1.75;0.77;;;27.90;61.90;;;;;;5010645;28;20122;-70
2023/08/20 12:45:57;;;;;;;1.83;0.93;;;27.70;61.70;;;;;;5008650;28;20030;-71